Pagrindinis puslapis
METAR-TAF:

METAR-TAF

Oro uostai :

San Paulas-Congonhas, San Paulas, Brazilija

platuma: 23-37S, ilguma: 046-39W, Aukštis: 803 m

Dabartinis oras

Ataskaita buvo paskelbta 43 minutes, ne 02:03 UTC
Vėjas 2 kt nuo kintamojo kryptimis
Temperatūra 12°C
Drėgmė 88%
Slėgis 1023 hPa
Matomumas 10 km arba daugiau
nėra debesų žemiau 1500 m ir nėra kamuolinių lietaus debesų

METAR: SBSP 290203Z VRB02KT CAVOK 12/10 Q1023

Laikas: 23:46 (02:46 UTC)

Prognozė

Ataskaita buvo paskelbta 4 valandos ir 31 minutes, ne 22:15 UTC
Prognozė galioja nuo 29 metu 00 UTC su 29 metu 12 UTC
Vėjas 8 kt iš Pietų/Pietryčių
Matomumas: 8000 m
Tapsmas
nuo 29 metu 01 UTC su 29 metu 03 UTC
Vėjas 5 kt iš Rytų

TAF: SBSP 282215Z 2900/2912 15008KT 8000 NSC TN10/2909Z TX13/2911Z BECMG 2901/2903 08005KT RMK PHG

Orai ataskaitas ir orų prognozės (METAR, TAF).

turimą stotys yra geltonos ir raudonos taškus žemėlapyje.

Perkelti pele per norėdami pamatyti stoties vardą.

Tada spustelėkite, norėdami matyti oro stebėjimo ir prognozės.

Norėdami pakeisti žemėlapį: spustelėkite ant žalios mygtukų su juodo kryžiaus žemyn,; žalią mygtuką su brūkšneliu, jei norite nutolinti; arba žalių rodyklių gretimoms žemėlapius.


METAR-TAF: